Pagrindinis puslapis
METAR-TAF:

METAR-TAF

Oro uostai :

Liepojos tarptautinis oro uostas

Liepoja, Latvija

platuma: 56-31N, ilguma: 021-05E, Aukštis: 5 m

Dabartinis oras

Ataskaita buvo paskelbta 5 minutes, ne 03:50 UTC
Vėjas 3 kt iš Vakarų
Temperatūra 18°C
Drėgmė 94%
Slėgis 1025 hPa
Matomumas 10 km arba daugiau

METAR: EVLA 240350Z AUTO 26003KT 9999 NCD 18/17 Q1025

Laikas: 06:55 (03:55 UTC)

Prognozė

Ataskaita buvo paskelbta 1 valandą ir 52 minutes, ne 02:03 UTC
Prognozė galioja nuo 24 metu 03 UTC su 25 metu 03 UTC
Vėjas 7 kt iš Vakarų
Matomumas 10 km arba daugiau
nėra debesų žemiau 1500 m ir nėra kamuolinių lietaus debesų
Tapsmas
nuo 24 metu 13 UTC su 24 metu 15 UTC
Vėjas 6 kt iš Šiaurės/Šiaurės Vakarų
Laikinai
nuo 24 metu 21 UTC su 24 metu 23 UTC
Matomumas: 3000 m
rūkana
Laikinai
nuo 24 metu 23 UTC su 25 metu 03 UTC
Matomumas: 0700 m
rūkas

TAF: EVLA 240203Z 2403/2503 27007KT CAVOK BECMG 2413/2415 33006KT TEMPO 2421/2423 3000 BR TEMPO 2423/2503 0700 FG

Orai ataskaitas ir orų prognozės (METAR, TAF).

turimą stotys yra geltonos ir raudonos taškus žemėlapyje.

Perkelti pele per norėdami pamatyti stoties vardą.

Tada spustelėkite, norėdami matyti oro stebėjimo ir prognozės.

Norėdami pakeisti žemėlapį: spustelėkite ant žalios mygtukų su juodo kryžiaus žemyn,; žalią mygtuką su brūkšneliu, jei norite nutolinti; arba žalių rodyklių gretimoms žemėlapius.


METAR-TAF: